Time;durP1;ratioP1;P1;durP2;ratioP2;P2;SDS_P1;SDS_P2;PMS_P1;PMS_P2;Temp;Humidity;BMP_temperature;BMP_pressure;BME280_temperature;BME280_humidity;BME280_pressure;Samples;Min_cycle;Max_cycle;Signal;HPM_P1;HPM_P2
2023/09/10 00:02:12;;;;;;;;;38.40;32.40;;;;;21.38;100.00;99114.25;6267488;27;98900;-68
2023/09/10 00:05:15;;;;;;;;;41.00;33.00;;;;;21.34;100.00;99113.19;6268399;27;96708;-68
2023/09/10 00:08:19;;;;;;;;;38.60;32.40;;;;;21.30;100.00;99112.13;6268792;27;96479;-68
2023/09/10 00:11:24;;;;;;;;;35.00;32.00;;;;;21.31;100.00;99108.25;6287268;27;96823;-68
2023/09/10 00:14:27;;;;;;;;;36.00;32.00;;;;;21.28;100.00;99108.84;6286015;27;97020;-68
2023/09/10 00:17:30;;;;;;;;;41.50;34.75;;;;;21.27;100.00;99107.19;6286847;27;96500;-68
2023/09/10 00:20:34;;;;;;;;;40.20;34.00;;;;;21.22;100.00;99103.66;6267263;27;96382;-68
2023/09/10 00:23:38;;;;;;;;;39.00;32.00;;;;;21.19;100.00;99107.81;6261257;27;96247;-68
2023/09/10 00:26:43;;;;;;;;;40.00;34.00;;;;;21.17;100.00;99105.34;6242554;27;96846;-69
2023/09/10 00:29:46;;;;;;;;;37.75;32.50;;;;;21.14;100.00;99103.19;6267416;27;96243;-69
2023/09/10 00:32:49;;;;;;;;;41.00;33.00;;;;;21.10;100.00;99102.09;6280494;27;97070;-68
2023/09/10 00:35:53;;;;;;;;;38.60;32.00;;;;;21.07;100.00;99104.56;6268852;27;96450;-68
2023/09/10 00:38:56;;;;;;;;;38.40;33.00;;;;;21.06;100.00;99105.69;6272577;27;96351;-69
2023/09/10 00:42:00;;;;;;;;;37.00;32.00;;;;;20.98;100.00;99095.31;6271635;27;97404;-68
2023/09/10 00:45:05;;;;;;;;;36.00;32.50;;;;;21.02;100.00;99099.13;6283892;27;96643;-68
2023/09/10 00:48:08;;;;;;;;;37.40;31.40;;;;;21.03;100.00;99103.50;6262385;27;96899;-68
2023/09/10 00:51:12;;;;;;;;;38.40;32.40;;;;;20.97;100.00;99096.41;6272268;27;96407;-68
2023/09/10 00:54:17;;;;;;;;;38.00;32.00;;;;;20.91;100.00;99098.41;6290064;27;97000;-69
2023/09/10 00:57:22;;;;;;;;;36.50;32.00;;;;;20.85;100.00;99093.22;6289511;27;96618;-68
2023/09/10 01:00:28;;;;;;;;;33.00;31.00;;;;;20.80;100.00;99091.34;6289196;27;98156;-68
2023/09/10 01:03:36;;;;;;;;;34.60;31.60;;;;;20.75;100.00;99089.44;6287463;27;96958;-68
2023/09/10 01:06:39;;;;;;;;;33.80;30.00;;;;;20.73;100.00;99096.28;6270325;27;96895;-68
2023/09/10 01:09:42;;;;;;;;;32.00;29.00;;;;;20.71;100.00;99101.25;6275796;27;97146;-68
2023/09/10 01:12:55;;;;;;;;;32.40;30.00;;;;;20.67;100.00;99103.72;6262147;27;97598;-68
2023/09/10 01:16:04;;;;;;;;;32.75;30.00;;;;;20.61;100.00;99101.31;6261013;27;96762;-68
2023/09/10 01:19:35;;;;;;;;;30.00;26.60;;;;;20.59;100.00;99093.34;6246260;27;96813;-68
2023/09/10 01:22:50;;;;;;;;;30.80;30.00;;;;;20.54;100.00;99098.03;6246336;27;96865;-68
2023/09/10 01:25:56;;;;;;;;;30.50;28.00;;;;;20.51;100.00;99093.13;6263646;27;97834;-68
2023/09/10 01:28:59;;;;;;;;;27.75;26.75;;;;;20.51;100.00;99090.41;6263460;27;96989;-68
2023/09/10 01:32:10;;;;;;;;;34.40;30.40;;;;;20.50;100.00;99083.28;6264877;27;96668;-68
2023/09/10 01:35:20;;;;;;;;;29.60;27.00;;;;;20.46;100.00;99085.75;6267362;27;97049;-67
2023/09/10 01:38:29;;;;;;;;;30.60;26.80;;;;;20.42;100.00;99087.44;6254067;27;96852;-68
2023/09/10 01:41:36;;;;;;;;;32.60;29.00;;;;;20.36;100.00;99085.81;6290104;27;96517;-68
2023/09/10 01:44:42;;;;;;;;;30.40;27.80;;;;;20.33;100.00;99081.69;6283408;27;96544;-68
2023/09/10 01:47:46;;;;;;;;;26.67;24.00;;;;;20.27;100.00;99082.00;6270276;27;96441;-68
2023/09/10 01:50:49;;;;;;;;;32.00;30.00;;;;;20.26;100.00;99088.56;6271309;27;96870;-68
2023/09/10 01:53:52;;;;;;;;;38.00;33.00;;;;;20.28;100.00;99084.41;6289280;27;96371;-68
2023/09/10 01:56:57;;;;;;;;;36.20;32.60;;;;;20.39;100.00;99087.97;6245898;27;98545;-68
2023/09/10 02:00:00;;;;;;;;;44.40;35.00;;;;;20.47;100.00;99084.66;6270908;27;96455;-68
2023/09/10 02:03:14;;;;;;;;;38.40;33.00;;;;;20.53;100.00;99089.00;6269447;27;96971;-68
2023/09/10 02:06:17;;;;;;;;;43.80;35.00;;;;;20.53;100.00;99083.53;6249875;27;97045;-68
2023/09/10 02:09:21;;;;;;;;;40.40;32.00;;;;;20.53;100.00;99090.91;6269814;27;96614;-68
2023/09/10 02:12:26;;;;;;;;;39.20;32.00;;;;;20.48;100.00;99090.94;6253780;27;98469;-68
2023/09/10 02:15:30;;;;;;;;;39.50;34.75;;;;;20.49;100.00;99090.66;6287113;27;96780;-68
2023/09/10 02:18:33;;;;;;;;;39.00;33.00;;;;;20.48;100.00;99088.19;6263906;27;96442;-68
2023/09/10 02:21:37;;;;;;;;;39.00;34.00;;;;;20.49;100.00;99085.19;6245254;27;96295;-68
2023/09/10 02:24:40;;;;;;;;;40.75;35.00;;;;;20.48;100.00;99078.06;6245511;27;96528;-68
2023/09/10 02:27:44;;;;;;;;;46.25;36.00;;;;;20.51;100.00;99083.00;6244577;27;96764;-68
2023/09/10 02:30:49;;;;;;;;;43.25;34.50;;;;;20.52;100.00;99087.38;6260543;27;96779;-68
2023/09/10 02:33:53;;;;;;;;;42.00;35.00;;;;;20.53;100.00;99077.22;6262826;27;97070;-68
2023/09/10 02:36:56;;;;;;;;;41.80;35.00;;;;;20.55;100.00;99086.00;6271275;27;96534;-68
2023/09/10 02:39:59;;;;;;;;;46.50;37.50;;;;;20.55;100.00;99081.34;6254645;27;96735;-68
2023/09/10 02:43:04;;;;;;;;;40.60;34.60;;;;;20.57;100.00;99083.81;6244824;27;97518;-68
2023/09/10 02:46:07;;;;;;;;;41.20;34.40;;;;;20.54;100.00;99084.34;6251739;27;97538;-68
2023/09/10 02:49:11;;;;;;;;;38.00;33.00;;;;;20.44;100.00;99067.97;6249120;27;96625;-68
2023/09/10 02:52:14;;;;;;;;;44.80;34.60;;;;;20.51;100.00;99079.44;6241983;27;98460;-68
2023/09/10 02:55:17;;;;;;;;;42.75;34.75;;;;;20.50;100.00;99088.75;6262212;27;96426;-68
2023/09/10 02:58:22;;;;;;;;;44.00;34.50;;;;;20.48;100.00;99085.47;6242993;27;97215;-68
2023/09/10 03:01:25;;;;;;;;;40.20;33.00;;;;;20.50;100.00;99081.34;6253087;27;96485;-68
2023/09/10 03:04:28;;;;;;;;;45.00;35.00;;;;;20.50;100.00;99075.88;6242136;27;96866;-68
2023/09/10 03:07:31;;;;;;;;;38.60;32.40;;;;;20.50;100.00;99089.56;6242514;27;96886;-68
2023/09/10 03:10:36;;;;;;;;;43.00;32.00;;;;;20.43;100.00;99093.72;6243109;27;97567;-67
2023/09/10 03:13:40;;;;;;;;;40.75;33.00;;;;;20.39;100.00;99087.97;6274214;27;96872;-68
2023/09/10 03:16:44;;;;;;;;;38.80;33.00;;;;;20.38;100.00;99085.53;6254270;27;96836;-68
2023/09/10 03:19:48;;;;;;;;;40.40;33.60;;;;;20.27;100.00;99065.56;6268654;27;97057;-68
2023/09/10 03:22:58;;;;;;;;;38.00;32.00;;;;;20.33;100.00;99072.66;6252110;27;97903;-68
2023/09/10 03:26:01;;;;;;;;;43.00;35.00;;;;;20.31;100.00;99078.44;6269650;27;96364;-68
2023/09/10 03:29:06;;;;;;;;;40.40;32.00;;;;;20.29;100.00;99069.63;6251931;27;96699;-67
2023/09/10 03:32:09;;;;;;;;;35.40;32.00;;;;;20.25;100.00;99076.78;6268944;27;96315;-68
2023/09/10 03:35:14;;;;;;;;;35.60;32.00;;;;;20.20;100.00;99074.06;6269334;27;96424;-68
2023/09/10 03:38:17;;;;;;;;;36.80;32.00;;;;;20.14;100.00;99071.63;6267748;27;96537;-68
2023/09/10 03:41:20;;;;;;;;;38.80;32.00;;;;;20.04;100.00;99075.22;6266130;27;100088;-68
2023/09/10 03:44:25;;;;;;;;;36.80;30.80;;;;;19.97;100.00;99071.13;6260631;27;96682;-68
2023/09/10 03:47:33;;;;;;;;;32.00;29.60;;;;;19.94;100.00;99064.28;6257327;27;96824;-68
2023/09/10 03:50:37;;;;;;;;;34.80;32.00;;;;;19.95;100.00;99063.19;6269340;27;96914;-68
2023/09/10 03:53:40;;;;;;;;;38.80;32.80;;;;;19.94;100.00;99061.56;6268312;27;96704;-68
2023/09/10 03:56:44;;;;;;;;;37.00;31.00;;;;;19.90;100.00;99055.81;6238305;27;98678;-68
2023/09/10 03:59:48;;;;;;;;;34.40;30.60;;;;;19.88;100.00;99073.63;6261830;27;96524;-68
2023/09/10 04:02:53;;;;;;;;;35.80;32.00;;;;;19.89;100.00;99067.03;6243993;27;97050;-68
2023/09/10 04:05:56;;;;;;;;;32.40;29.00;;;;;19.87;100.00;99058.31;6249374;27;96382;-67
2023/09/10 04:09:00;;;;;;;;;35.50;30.00;;;;;19.85;100.00;99064.03;6248276;27;96709;-67
2023/09/10 04:12:04;;;;;;;;;36.00;32.00;;;;;19.81;100.00;99067.63;6265628;27;97547;-67
2023/09/10 04:15:09;;;;;;;;;36.20;32.00;;;;;19.76;100.00;99076.66;6253412;27;96846;-67
2023/09/10 04:18:12;;;;;;;;;38.00;31.00;;;;;19.72;100.00;99075.56;6272707;27;99549;-67
2023/09/10 04:21:16;;;;;;;;;37.00;32.50;;;;;19.74;100.00;99076.09;6264701;27;96295;-68
2023/09/10 04:24:19;;;;;;;;;34.00;32.00;;;;;19.78;100.00;99073.66;6247890;27;96936;-67
2023/09/10 04:27:22;;;;;;;;;35.25;32.25;;;;;19.79;100.00;99078.03;6248053;27;96718;-67
2023/09/10 04:30:27;;;;;;;;;37.00;32.00;;;;;19.79;100.00;99078.03;6278119;27;97082;-68
2023/09/10 04:33:30;;;;;;;;;31.60;29.00;;;;;19.77;100.00;99081.03;6248921;27;97265;-67
2023/09/10 04:36:33;;;;;;;;;33.25;30.00;;;;;19.81;100.00;99082.13;6263209;27;96461;-67
2023/09/10 04:39:38;;;;;;;;;34.60;29.40;;;;;19.84;100.00;99078.81;6247336;27;96070;-67
2023/09/10 04:42:41;;;;;;;;;31.60;30.00;;;;;19.87;100.00;99089.22;6264229;27;96386;-67
2023/09/10 04:45:47;;;;;;;;;35.00;31.00;;;;;19.88;100.00;99088.13;6240398;27;98580;-67
2023/09/10 04:48:50;;;;;;;;;32.25;30.00;;;;;19.93;100.00;99087.31;6267194;27;98219;-67
2023/09/10 04:51:54;;;;;;;;;31.00;29.00;;;;;20.00;100.00;99089.72;6229131;27;96604;-68
2023/09/10 04:54:57;;;;;;;;;30.20;27.20;;;;;20.07;100.00;99093.00;6227477;27;96707;-67
2023/09/10 04:58:00;;;;;;;;;36.40;30.40;;;;;20.12;100.00;99085.59;6226989;27;97310;-67
2023/09/10 05:01:05;;;;;;;;;31.00;29.00;;;;;20.19;100.00;99093.50;6259652;27;97121;-67
2023/09/10 05:04:09;;;;;;;;;35.20;32.00;;;;;20.22;100.00;99092.97;6243266;27;96703;-67
2023/09/10 05:07:12;;;;;;;;;28.60;27.60;;;;;20.34;100.00;99085.25;6226112;27;96797;-67
2023/09/10 05:10:16;;;;;;;;;31.00;28.00;;;;;20.51;100.00;99093.97;6244663;27;96502;-68
2023/09/10 05:13:19;;;;;;;;;32.00;29.20;;;;;20.66;100.00;99096.63;6262684;27;96506;-68
2023/09/10 05:16:24;;;;;;;;;30.00;28.00;;;;;20.77;100.00;99091.09;6275817;27;96423;-67
2023/09/10 05:19:27;;;;;;;;;35.40;31.40;;;;;20.93;100.00;99093.44;6249096;27;96553;-68
2023/09/10 05:22:31;;;;;;;;;35.00;31.20;;;;;21.08;100.00;99098.81;6245561;27;97231;-68
2023/09/10 05:25:35;;;;;;;;;34.00;30.00;;;;;21.25;100.00;99097.63;6259410;27;96396;-68
2023/09/10 05:28:39;;;;;;;;;31.80;30.00;;;;;21.42;100.00;99101.59;6264465;27;96325;-68
2023/09/10 05:31:46;;;;;;;;;31.00;29.00;;;;;21.58;100.00;99099.53;6261579;27;96910;-68
2023/09/10 05:34:49;;;;;;;;;31.67;30.00;;;;;21.80;100.00;99110.03;6262851;27;96881;-68
2023/09/10 05:37:53;;;;;;;;;29.20;27.80;;;;;22.02;100.00;99093.91;6264126;27;96548;-68
2023/09/10 05:41:01;;;;;;;;;30.00;29.00;;;;;22.19;100.00;99101.69;6246307;27;97168;-68
2023/09/10 05:44:06;;;;;;;;;40.00;32.00;;;;;22.34;100.00;99107.00;6246745;27;96729;-67
2023/09/10 05:47:10;;;;;;;;;32.00;28.75;;;;;22.55;100.00;99102.88;6255387;27;96978;-68
2023/09/10 05:50:14;;;;;;;;;34.60;31.60;;;;;22.74;100.00;99101.00;6279966;27;97514;-68
2023/09/10 05:53:17;;;;;;;;;34.80;31.00;;;;;22.91;100.00;99103.25;6260101;27;98406;-68
2023/09/10 05:56:20;;;;;;;;;32.40;28.60;;;;;23.08;100.00;99100.78;6258348;27;96638;-68
2023/09/10 05:59:24;;;;;;;;;31.00;30.00;;;;;23.29;100.00;99107.63;6245846;27;96403;-68
2023/09/10 06:02:31;;;;;;;;;36.60;32.00;;;;;23.51;100.00;99108.94;6261343;27;97019;-68
2023/09/10 06:05:35;;;;;;;;;36.50;30.75;;;;;23.72;100.00;99112.97;6264747;27;96760;-68
2023/09/10 06:08:38;;;;;;;;;35.00;32.00;;;;;23.99;100.00;99110.28;6244849;27;97247;-68
2023/09/10 06:11:42;;;;;;;;;40.40;32.00;;;;;24.14;100.00;99106.44;6256314;27;97949;-67
2023/09/10 06:14:45;;;;;;;;;32.20;29.80;;;;;24.35;100.00;99115.13;6267772;27;97625;-68
2023/09/10 06:17:50;;;;;;;;;34.80;31.80;;;;;24.55;100.00;99111.94;6272089;27;96864;-68
2023/09/10 06:20:53;;;;;;;;;32.75;30.00;;;;;24.77;100.00;99113.97;6275529;27;96651;-68
2023/09/10 06:23:57;;;;;;;;;38.40;32.40;;;;;24.90;100.00;99111.22;6245103;27;98909;-68
2023/09/10 06:27:01;;;;;;;;;31.60;30.00;;;;;25.17;100.00;99110.31;6253832;27;97240;-68
2023/09/10 06:30:05;;;;;;;;;32.00;30.00;;;;;25.43;100.00;99119.63;6276253;27;96567;-68
2023/09/10 06:33:10;;;;;;;;;34.00;30.00;;;;;25.73;100.00;99120.00;6255504;27;97029;-68
2023/09/10 06:36:14;;;;;;;;;35.00;31.00;;;;;25.99;100.00;99125.69;6276747;27;96410;-68
2023/09/10 06:39:18;;;;;;;;;34.00;30.67;;;;;26.19;100.00;99122.38;6244455;27;96661;-68
2023/09/10 06:42:21;;;;;;;;;34.50;31.25;;;;;26.49;100.00;99126.25;6271225;27;96916;-68
2023/09/10 06:45:43;;;;;;;;;32.25;30.00;;;;;26.82;100.00;99129.44;6261982;27;97109;-68
2023/09/10 06:48:47;;;;;;;;;33.00;30.00;;;;;27.13;100.00;99128.19;6275470;27;98038;-68
2023/09/10 06:51:51;;;;;;;;;30.80;30.00;;;;;27.37;100.00;99138.78;6275190;27;97664;-68
2023/09/10 06:54:54;;;;;;;;;34.40;31.60;;;;;27.45;100.00;99137.97;6261683;27;96751;-70
2023/09/10 06:57:59;;;;;;;;;32.00;30.00;;;;;27.55;100.00;99142.41;6255149;27;97104;-67
2023/09/10 07:01:08;;;;;;;;;31.67;29.67;;;;;27.74;100.00;99142.88;6257550;27;96990;-68
2023/09/10 07:04:21;;;;;;;;;34.50;31.50;;;;;27.92;100.00;99151.94;6271566;27;98256;-68
2023/09/10 07:07:24;;;;;;;;;32.00;30.00;;;;;28.27;100.00;99156.28;6266820;27;96931;-68
2023/09/10 07:10:27;;;;;;;;;33.60;30.00;;;;;28.51;100.00;99150.16;6250246;27;98491;-68
2023/09/10 07:13:31;;;;;;;;;32.25;30.00;;;;;28.81;100.00;99145.44;6261562;27;96706;-68
2023/09/10 07:16:34;;;;;;;;;33.00;30.00;;;;;29.04;100.00;99160.63;6263162;27;97742;-68
2023/09/10 07:19:41;;;;;;;;;31.25;29.25;;;;;29.38;100.00;99159.59;6261038;27;97833;-68
2023/09/10 07:22:44;;;;;;;;;36.00;30.50;;;;;29.69;100.00;99160.00;6260540;27;97575;-68
2023/09/10 07:25:48;;;;;;;;;33.80;30.00;;;;;30.05;100.00;99161.31;6258671;27;96616;-68
2023/09/10 07:28:51;;;;;;;;;36.00;32.00;;;;;30.20;100.00;99159.84;6246955;27;97533;-68
2023/09/10 07:31:54;;;;;;;;;31.60;30.00;;;;;30.47;100.00;99161.97;6287398;27;97052;-69
2023/09/10 07:34:59;;;;;;;;;31.60;29.60;;;;;30.76;100.00;99158.16;6287501;27;96560;-69
2023/09/10 07:38:03;;;;;;;;;30.60;28.00;;;;;31.13;100.00;99147.84;6282484;27;97206;-68
2023/09/10 07:41:06;;;;;;;;;31.00;29.50;;;;;31.55;100.00;99160.25;6255853;27;96641;-68
2023/09/10 07:44:09;;;;;;;;;32.00;30.00;;;;;31.94;100.00;99154.97;6245155;27;97031;-67
2023/09/10 07:47:13;;;;;;;;;28.00;26.75;;;;;32.15;100.00;99158.38;6264783;27;96600;-68
2023/09/10 07:50:17;;;;;;;;;29.20;28.00;;;;;32.58;100.00;99158.31;6265056;27;97198;-69
2023/09/10 07:53:20;;;;;;;;;34.00;30.00;;;;;32.85;100.00;99162.16;6236551;27;98400;-69
2023/09/10 07:56:24;;;;;;;;;29.40;28.00;;;;;33.23;100.00;99169.06;6266726;27;98396;-68
2023/09/10 07:59:28;;;;;;;;;32.00;28.25;;;;;33.49;100.00;99166.44;6254294;27;97155;-69
2023/09/10 08:02:34;;;;;;;;;29.33;28.33;;;;;33.69;100.00;99164.47;6256152;27;97577;-69
2023/09/10 08:05:39;;;;;;;;;27.40;27.40;;;;;34.05;100.00;99166.81;6251989;27;99936;-68
2023/09/10 08:08:42;;;;;;;;;29.00;26.00;;;;;34.36;100.00;99171.38;6265285;27;97605;-68
2023/09/10 08:11:45;;;;;;;;;26.40;25.40;;;;;34.53;100.00;99161.69;6268289;27;96842;-68
2023/09/10 08:14:48;;;;;;;;;30.40;28.00;;;;;34.83;100.00;99167.41;6264071;27;97815;-69
2023/09/10 08:17:56;;;;;;;;;30.25;27.75;;;;;35.12;100.00;99164.66;6263678;27;96608;-69
2023/09/10 08:21:00;;;;;;;;;28.60;27.00;;;;;35.37;100.00;99161.44;6257362;27;97331;-69
2023/09/10 08:24:04;;;;;;;;;28.00;24.00;;;;;35.42;100.00;99136.69;6262983;27;99603;-69
2023/09/10 08:27:12;;;;;;;;;25.75;25.00;;;;;35.51;100.00;99137.19;6268061;27;96787;-68
2023/09/10 08:30:15;;;;;;;;;25.00;24.00;;;;;35.59;100.00;99155.69;6272469;27;97368;-69
2023/09/10 08:33:19;;;;;;;;;22.00;20.80;;;;;35.55;100.00;99151.25;6260668;27;96724;-69
2023/09/10 08:36:24;;;;;;;;;23.00;22.00;;;;;35.97;100.00;99159.41;6267846;27;97015;-69
2023/09/10 08:39:27;;;;;;;;;24.00;22.00;;;;;36.24;100.00;99155.28;6269677;27;96656;-69
2023/09/10 08:42:39;;;;;;;;;22.60;21.00;;;;;36.37;100.00;99167.84;6261108;27;96782;-69
2023/09/10 08:45:44;;;;;;;;;20.80;19.80;;;;;36.63;100.00;99164.09;6264882;27;97517;-69
2023/09/10 08:48:48;;;;;;;;;21.40;21.00;;;;;36.77;100.00;99154.97;6267338;27;96732;-68
2023/09/10 08:51:53;;;;;;;;;23.20;22.00;;;;;37.06;100.00;99165.22;6271158;27;97355;-68
2023/09/10 08:54:56;;;;;;;;;21.00;21.00;;;;;37.41;100.00;99159.00;6285443;27;97579;-69
2023/09/10 08:58:00;;;;;;;;;20.25;19.25;;;;;37.65;100.00;99158.34;6289202;27;98228;-69
2023/09/10 09:01:04;;;;;;;;;20.40;19.00;;;;;37.74;100.00;99160.78;6288486;27;96575;-69
2023/09/10 09:04:08;;;;;;;;;23.60;20.80;;;;;37.90;98.23;99157.63;6288299;27;96744;-69
2023/09/10 09:07:16;;;;;;;;;22.00;19.00;;;;;38.15;100.00;99155.72;6288874;27;97263;-69
2023/09/10 09:10:22;;;;;;;;;19.40;18.00;;;;;38.34;97.79;99158.16;6271063;27;96647;-69
2023/09/10 09:13:27;;;;;;;;;20.60;18.60;;;;;38.39;95.54;99154.94;6275690;27;96565;-69
2023/09/10 09:16:31;;;;;;;;;20.00;19.00;;;;;38.46;95.22;99145.72;6255045;27;97777;-69
2023/09/10 09:19:38;;;;;;;;;20.00;19.80;;;;;38.64;94.78;99148.53;6259069;27;97415;-69
2023/09/10 09:22:48;;;;;;;;;19.00;17.00;;;;;38.68;94.21;99149.31;6282367;27;96403;-69
2023/09/10 09:25:52;;;;;;;;;17.60;16.00;;;;;38.97;91.18;99148.13;6261932;27;97908;-69
2023/09/10 09:28:56;;;;;;;;;21.75;18.75;;;;;39.32;86.81;99150.06;6274071;27;97147;-69
2023/09/10 09:31:59;;;;;;;;;19.00;18.00;;;;;39.22;86.26;99157.31;6253240;27;96693;-69
2023/09/10 09:35:04;;;;;;;;;21.00;19.00;;;;;39.21;89.87;99155.72;6258265;27;97558;-69
2023/09/10 09:38:10;;;;;;;;;19.00;18.00;;;;;38.95;86.57;99147.72;6277855;27;96719;-69
2023/09/10 09:41:15;;;;;;;;;22.40;19.00;;;;;38.98;92.06;99144.09;6271138;27;97159;-69
2023/09/10 09:44:19;;;;;;;;;18.00;17.00;;;;;39.23;88.01;99155.31;6240932;27;97310;-70
2023/09/10 09:47:22;;;;;;;;;18.25;18.00;;;;;39.62;87.23;99139.09;6248696;27;98561;-69
2023/09/10 09:50:27;;;;;;;;;17.60;16.00;;;;;40.01;83.94;99140.91;6278640;27;96993;-69
2023/09/10 09:53:34;;;;;;;;;19.00;19.00;;;;;40.24;82.77;99138.34;6261907;27;97604;-68
2023/09/10 09:56:38;;;;;;;;;20.00;19.00;;;;;39.92;79.54;99127.25;6261064;27;97820;-69
2023/09/10 09:59:41;;;;;;;;;17.60;16.00;;;;;39.87;85.21;99126.88;6259309;27;97128;-69
2023/09/10 10:02:45;;;;;;;;;20.00;19.00;;;;;40.00;81.31;99126.00;6277871;27;96590;-70
2023/09/10 10:05:50;;;;;;;;;19.40;19.00;;;;;39.99;80.91;99126.38;6276370;27;97519;-68
2023/09/10 10:08:55;;;;;;;;;20.00;17.40;;;;;40.07;82.20;99120.31;6271536;27;97726;-70
2023/09/10 10:11:58;;;;;;;;;19.00;18.00;;;;;39.93;81.38;99119.59;6264723;27;96751;-69
2023/09/10 10:15:02;;;;;;;;;21.00;19.40;;;;;39.95;83.85;99109.47;6270159;27;97161;-69
2023/09/10 10:18:07;;;;;;;;;20.00;20.00;;;;;40.17;84.33;99110.94;6269400;27;96961;-69
2023/09/10 10:21:11;;;;;;;;;18.60;18.00;;;;;40.34;83.73;99099.94;6278403;27;96734;-69
2023/09/10 10:24:16;;;;;;;;;18.00;17.00;;;;;40.53;81.80;99107.84;6276269;27;96655;-69
2023/09/10 10:27:22;;;;;;;;;19.00;17.00;;;;;40.72;81.27;99101.63;6287797;27;97103;-68
2023/09/10 10:30:28;;;;;;;;;17.80;17.20;;;;;40.86;82.71;99106.38;6275520;27;96988;-68
2023/09/10 10:33:32;;;;;;;;;18.00;17.00;;;;;41.12;78.68;99099.22;6267960;27;97427;-67
2023/09/10 10:36:46;;;;;;;;;18.00;17.00;;;;;41.59;76.33;99095.41;6247387;27;97069;-67
2023/09/10 10:39:58;;;;;;;;;18.00;17.75;;;;;41.78;74.73;99089.13;6258250;27;96538;-67
2023/09/10 10:43:08;;;;;;;;;21.00;18.00;;;;;42.00;74.90;99091.63;6273259;27;97396;-68
2023/09/10 10:46:13;;;;;;;;;16.20;15.80;;;;;42.13;74.31;99089.84;6260552;27;96787;-67
2023/09/10 10:49:16;;;;;;;;;18.00;16.50;;;;;42.16;74.37;99084.09;6273937;27;96981;-67
2023/09/10 10:52:23;;;;;;;;;18.40;18.00;;;;;42.12;73.46;99086.19;6254734;27;97605;-67
2023/09/10 10:55:28;;;;;;;;;15.00;14.50;;;;;42.15;71.45;99078.84;6251353;27;98001;-68
2023/09/10 10:58:34;;;;;;;;;14.40;14.00;;;;;42.20;69.42;99078.38;6262067;27;96576;-68
2023/09/10 11:01:39;;;;;;;;;15.00;15.00;;;;;42.00;64.78;99074.66;6260370;27;97588;-67
2023/09/10 11:04:55;;;;;;;;;16.80;15.00;;;;;41.98;68.58;99080.75;6259977;27;97107;-67
2023/09/10 11:08:26;;;;;;;;;14.00;13.00;;;;;42.07;65.11;99072.53;6238676;27;99623;-68
2023/09/10 11:11:50;;;;;;;;;12.00;11.00;;;;;42.18;60.88;99063.81;6267428;27;98560;-67
2023/09/10 11:15:12;;;;;;;;;12.25;12.00;;;;;42.30;62.32;99066.91;6266627;27;98421;-67
2023/09/10 11:18:42;;;;;;;;;14.50;14.50;;;;;42.44;62.19;99060.16;6251211;27;99120;-68
2023/09/10 11:22:02;;;;;;;;;13.20;12.20;;;;;42.46;60.66;99059.75;6252040;27;97343;-68
2023/09/10 11:25:06;;;;;;;;;15.00;13.60;;;;;42.39;61.81;99052.16;6243589;27;97372;-68
2023/09/10 11:28:43;;;;;;;;;14.80;14.40;;;;;42.40;61.41;99059.44;6242433;27;99474;-68
2023/09/10 11:31:48;;;;;;;;;16.80;14.20;;;;;42.40;63.98;99050.13;6240352;27;96642;-68
2023/09/10 11:34:51;;;;;;;;;15.40;14.40;;;;;42.37;59.29;99048.19;6248595;27;96415;-67
2023/09/10 11:37:56;;;;;;;;;13.80;13.00;;;;;42.35;60.05;99045.75;6262933;27;96892;-67
2023/09/10 11:41:00;;;;;;;;;15.40;14.00;;;;;42.16;58.46;99038.78;6261687;27;97619;-67
2023/09/10 11:44:05;;;;;;;;;13.00;13.00;;;;;41.98;59.69;99043.13;6260530;27;97571;-67
2023/09/10 11:47:09;;;;;;;;;12.20;11.20;;;;;41.85;64.16;99038.03;6243023;27;97194;-67
2023/09/10 11:50:14;;;;;;;;;17.00;14.75;;;;;42.03;65.64;99037.75;6261026;27;96498;-68
2023/09/10 11:53:18;;;;;;;;;15.00;14.75;;;;;42.02;61.00;99033.34;6242649;27;96873;-67
2023/09/10 11:56:22;;;;;;;;;10.60;10.00;;;;;41.88;62.16;99031.53;6261071;27;96444;-67
2023/09/10 11:59:29;;;;;;;;;15.00;14.00;;;;;42.03;63.33;99031.31;6261322;27;97524;-68
2023/09/10 12:02:33;;;;;;;;;13.60;12.60;;;;;41.84;59.61;99027.91;6265829;27;97036;-67
2023/09/10 12:05:37;;;;;;;;;13.00;12.00;;;;;41.77;58.12;99018.75;6272945;27;97418;-68
2023/09/10 12:08:40;;;;;;;;;16.60;14.60;;;;;41.47;58.89;99025.25;6274097;27;97528;-68
2023/09/10 12:11:44;;;;;;;;;13.20;12.60;;;;;40.92;61.20;99017.81;6258363;27;98998;-69
2023/09/10 12:14:49;;;;;;;;;14.00;13.00;;;;;40.57;65.04;99024.63;6275540;27;97110;-69
2023/09/10 12:17:52;;;;;;;;;12.60;12.60;;;;;40.41;64.28;99015.94;6274333;27;97655;-68
2023/09/10 12:20:57;;;;;;;;;13.40;13.00;;;;;40.16;65.57;99010.50;6260707;27;97052;-68
2023/09/10 12:24:01;;;;;;;;;13.60;13.00;;;;;40.24;65.02;99005.59;6283907;27;96629;-68
2023/09/10 12:27:04;;;;;;;;;15.00;15.00;;;;;40.40;64.62;99005.03;6279539;27;96995;-68
2023/09/10 12:30:11;;;;;;;;;13.00;13.00;;;;;40.57;67.14;98996.38;6263188;27;97462;-69
2023/09/10 12:33:15;;;;;;;;;15.00;13.40;;;;;40.61;65.59;98997.16;6246793;27;96546;-69
2023/09/10 12:36:19;;;;;;;;;11.80;10.40;;;;;40.56;66.66;98982.69;6265469;27;97375;-68
2023/09/10 12:39:24;;;;;;;;;13.00;12.00;;;;;40.59;63.65;98999.59;6261092;27;96715;-69
2023/09/10 12:42:29;;;;;;;;;11.75;11.75;;;;;40.56;66.75;98991.97;6265517;27;96523;-69
2023/09/10 12:45:33;;;;;;;;;14.00;11.75;;;;;40.53;66.99;98995.63;6265192;27;97478;-69
2023/09/10 12:48:38;;;;;;;;;13.25;13.25;;;;;40.34;67.26;98993.38;6247534;27;96466;-69
2023/09/10 12:51:42;;;;;;;;;15.00;14.60;;;;;40.07;69.43;99000.88;6264752;27;97196;-69
2023/09/10 12:54:46;;;;;;;;;14.00;13.25;;;;;39.42;69.46;98989.22;6270572;27;96596;-67
2023/09/10 12:57:53;;;;;;;;;12.60;12.00;;;;;38.92;71.80;98987.84;6245125;27;96952;-68
2023/09/10 13:00:58;;;;;;;;;13.80;13.00;;;;;38.80;73.01;98991.09;6269060;27;97429;-68
2023/09/10 13:04:02;;;;;;;;;11.00;11.00;;;;;38.66;74.93;98977.81;6262448;27;96594;-68
2023/09/10 13:07:05;;;;;;;;;14.00;13.00;;;;;38.21;72.64;98975.91;6244916;27;97112;-69
2023/09/10 13:10:10;;;;;;;;;14.00;11.60;;;;;38.22;72.30;98975.47;6269345;27;97118;-68
2023/09/10 13:13:13;;;;;;;;;12.00;11.00;;;;;37.93;75.05;98973.84;6268203;27;97045;-68
2023/09/10 13:16:17;;;;;;;;;9.60;9.60;;;;;37.70;75.07;98969.44;6267235;27;96532;-68
2023/09/10 13:19:20;;;;;;;;;11.00;10.40;;;;;37.51;75.38;98957.75;6268477;27;96667;-69
2023/09/10 13:22:23;;;;;;;;;11.00;11.00;;;;;37.16;75.88;98955.66;6271344;27;97007;-69
2023/09/10 13:25:27;;;;;;;;;10.60;10.00;;;;;37.05;75.53;98963.22;6254121;27;96441;-68
2023/09/10 13:28:30;;;;;;;;;11.40;11.00;;;;;36.90;74.27;98959.53;6258274;27;97249;-68
2023/09/10 13:31:35;;;;;;;;;9.60;9.00;;;;;36.77;76.11;98953.47;6244405;27;98939;-68
2023/09/10 13:34:38;;;;;;;;;10.00;9.60;;;;;36.90;76.24;98957.53;6263653;27;96525;-68
2023/09/10 13:37:42;;;;;;;;;10.00;9.00;;;;;36.72;74.45;98953.84;6267762;27;96669;-68
2023/09/10 13:40:45;;;;;;;;;10.00;10.00;;;;;36.69;72.56;98948.22;6267353;27;96463;-68
2023/09/10 13:43:50;;;;;;;;;11.40;11.40;;;;;36.74;72.58;98945.84;6237033;27;99022;-68
2023/09/10 13:46:54;;;;;;;;;10.60;10.60;;;;;36.50;74.57;98942.88;6271243;27;96700;-68
2023/09/10 13:49:58;;;;;;;;;10.00;9.33;;;;;36.38;75.80;98944.00;6248698;27;97283;-69
2023/09/10 13:53:01;;;;;;;;;10.00;9.00;;;;;36.34;72.37;98940.38;6247933;27;97455;-68
2023/09/10 13:56:05;;;;;;;;;11.67;10.00;;;;;36.46;74.10;98934.41;6247858;27;97266;-68
2023/09/10 13:59:08;;;;;;;;;11.00;11.00;;;;;36.41;76.56;98940.41;6240023;27;98112;-68
2023/09/10 14:02:12;;;;;;;;;10.00;9.00;;;;;36.40;77.54;98948.06;6253311;27;96868;-68
2023/09/10 14:05:16;;;;;;;;;11.60;11.60;;;;;36.18;76.14;98932.25;6245769;27;96739;-69